createdAt,value
2023-04-01T00:00:16.200Z,77.8015
2023-04-01T00:01:17.260Z,77.9076
2023-04-01T00:02:18.364Z,77.8647
2023-04-01T00:03:19.478Z,77.8071
2023-04-01T00:04:20.571Z,77.8902
2023-04-01T00:05:21.583Z,77.9315
2023-04-01T00:06:22.737Z,77.9201
2023-04-01T00:07:23.743Z,77.8764
2023-04-01T00:08:24.776Z,77.5479
2023-04-01T00:09:25.737Z,77.7255
2023-04-01T00:10:26.412Z,77.8965
2023-04-01T00:11:27.480Z,77.6623
2023-04-01T00:12:28.605Z,77.9845
2023-04-01T00:13:29.651Z,77.9341
2023-04-01T00:14:30.750Z,77.8365
2023-04-01T00:15:31.891Z,77.9756
2023-04-01T00:16:33.068Z,77.7919
2023-04-01T00:17:34.196Z,77.9085
2023-04-01T00:18:35.327Z,78.0672
2023-04-01T00:19:36.410Z,77.8047
2023-04-01T00:20:37.513Z,77.7835
2023-04-01T00:21:38.594Z,77.9808
2023-04-01T00:22:39.742Z,77.4672
2023-04-01T00:23:40.841Z,77.3587
2023-04-01T00:24:41.946Z,77.5723
2023-04-01T00:25:43.011Z,77.8801
2023-04-01T00:26:44.147Z,77.9109
2023-04-01T00:27:45.193Z,78.0346
2023-04-01T00:28:46.322Z,77.7594
2023-04-01T00:29:47.428Z,77.9601
2023-04-01T00:30:48.574Z,77.7760
2023-04-01T00:31:49.736Z,77.6639
2023-04-01T00:32:50.865Z,77.7721
2023-04-01T00:33:52.073Z,77.9654
2023-04-01T00:34:53.125Z,78.2796
2023-04-01T00:35:54.242Z,78.2723
2023-04-01T00:36:55.356Z,78.2833
2023-04-01T00:37:56.463Z,78.2055
2023-04-01T00:38:57.533Z,78.1084
2023-04-01T00:39:58.644Z,77.6613
2023-04-01T00:40:59.759Z,77.8341
2023-04-01T00:42:00.810Z,77.4740
2023-04-01T00:43:01.940Z,77.4979
2023-04-01T00:44:03.328Z,77.5322
2023-04-01T00:45:04.436Z,76.9346
2023-04-01T00:46:05.588Z,76.7349
2023-04-01T00:47:06.675Z,76.7231
2023-04-01T00:48:07.842Z,76.9915
2023-04-01T00:49:08.995Z,76.6252
2023-04-01T00:50:10.036Z,76.7628
2023-04-01T00:51:11.111Z,76.6672
2023-04-01T00:52:12.176Z,76.9871
2023-04-01T00:53:13.290Z,77.2064
2023-04-01T00:54:14.368Z,76.7319
2023-04-01T00:55:15.441Z,76.6278
2023-04-01T00:56:16.562Z,77.0415
2023-04-01T00:57:17.648Z,77.0618
2023-04-01T00:58:18.787Z,77.1001
2023-04-01T00:59:19.880Z,77.1449
2023-04-01T01:00:20.977Z,77.4475
2023-04-01T01:01:22.131Z,77.3348
2023-04-01T01:02:23.238Z,77.4837
2023-04-01T01:03:24.417Z,77.3825
2023-04-01T01:04:25.486Z,77.7793
2023-04-01T01:05:26.574Z,77.9715
2023-04-01T01:06:27.633Z,77.6646
2023-04-01T01:07:28.700Z,77.0876
2023-04-01T01:08:29.815Z,77.5764
2023-04-01T01:09:30.978Z,77.7288
2023-04-01T01:10:32.086Z,77.8053
2023-04-01T01:11:36.968Z,77.8588
2023-04-01T01:12:35.269Z,77.8575
2023-04-01T01:13:36.345Z,78.4142
2023-04-01T01:14:37.394Z,78.2583
2023-04-01T01:15:38.473Z,78.3340
2023-04-01T01:16:39.633Z,78.6076
2023-04-01T01:17:40.773Z,78.9432
2023-04-01T01:18:41.857Z,78.7660
2023-04-01T01:19:42.935Z,78.5528
2023-04-01T01:20:44.016Z,78.7442
2023-04-01T01:21:45.080Z,78.7686
2023-04-01T01:22:46.174Z,78.7283
2023-04-01T01:23:47.258Z,79.4502
2023-04-01T01:24:48.307Z,79.8028
2023-04-01T01:25:49.362Z,79.4492
2023-04-01T01:26:50.432Z,79.5680
2023-04-01T01:27:51.570Z,79.9720
2023-04-01T01:28:52.621Z,79.6893
2023-04-01T01:29:53.713Z,79.7550
2023-04-01T01:30:55.137Z,79.9408
2023-04-01T01:31:56.249Z,79.9071
2023-04-01T01:32:57.367Z,79.3461
2023-04-01T01:33:58.442Z,79.6636
2023-04-01T01:34:59.541Z,79.7691
2023-04-01T01:36:00.627Z,79.5886
2023-04-01T01:37:01.674Z,78.7795
2023-04-01T01:38:02.758Z,78.8152
2023-04-01T01:39:03.874Z,78.9267
2023-04-01T01:40:04.923Z,78.1437
2023-04-01T01:41:06.038Z,78.9899
2023-04-01T01:42:07.144Z,79.4128
2023-04-01T01:43:08.221Z,79.2697
2023-04-01T01:44:09.317Z,78.9200
2023-04-01T01:45:10.398Z,79.0787
2023-04-01T01:46:11.499Z,79.2695
2023-04-01T01:47:12.695Z,79.4877
2023-04-01T01:48:13.794Z,79.3553
2023-04-01T01:49:14.862Z,78.5276
2023-04-01T01:50:16.002Z,78.7446
2023-04-01T01:51:17.057Z,78.9023
2023-04-01T01:52:18.210Z,78.6788
2023-04-01T01:53:19.253Z,78.4380
2023-04-01T01:54:20.348Z,77.8811
2023-04-01T01:55:21.468Z,77.9893
2023-04-01T01:56:22.531Z,78.3896
2023-04-01T01:57:23.651Z,78.5366
2023-04-01T01:58:24.783Z,78.5152
2023-04-01T01:59:25.858Z,77.7691
2023-04-01T02:00:26.941Z,77.7901
2023-04-01T02:01:28.060Z,77.5622
2023-04-01T02:02:29.144Z,77.8684
2023-04-01T02:03:30.227Z,77.7349
2023-04-01T02:04:31.352Z,77.8426
2023-04-01T02:05:32.673Z,77.6065
2023-04-01T02:06:34.053Z,77.5313
2023-04-01T02:07:35.124Z,77.6444
2023-04-01T02:08:36.157Z,77.4194
2023-04-01T02:09:37.202Z,77.5296
2023-04-01T02:10:38.339Z,77.2852
2023-04-01T02:11:39.437Z,77.0313
2023-04-01T02:12:40.527Z,77.2618
2023-04-01T02:13:41.630Z,76.8509
2023-04-01T02:14:42.747Z,76.3954
2023-04-01T02:15:43.863Z,76.6332
2023-04-01T02:16:44.923Z,76.9521
2023-04-01T02:17:46.053Z,76.4885
2023-04-01T02:18:47.102Z,76.6491
2023-04-01T02:19:48.187Z,76.6702
2023-04-01T02:20:49.252Z,76.4311
2023-04-01T02:21:50.301Z,76.2149
2023-04-01T02:22:51.388Z,76.2240
2023-04-01T02:23:52.532Z,76.1638
2023-04-01T02:24:53.593Z,76.4390
2023-04-01T02:25:54.889Z,76.2626
2023-04-01T02:26:55.945Z,76.4713
2023-04-01T02:27:57.186Z,76.0621
2023-04-01T02:28:58.241Z,76.1671
2023-04-01T02:29:59.315Z,76.5549
2023-04-01T02:31:00.399Z,76.3408
2023-04-01T02:32:01.490Z,75.6081
2023-04-01T02:33:02.607Z,75.9478
2023-04-01T02:34:03.725Z,75.5491
2023-04-01T02:35:04.827Z,74.5317
2023-04-01T02:36:05.837Z,74.8449
2023-04-01T02:37:06.895Z,75.0956
2023-04-01T02:38:08.003Z,75.1473
2023-04-01T02:39:09.079Z,75.1178
2023-04-01T02:40:10.293Z,75.6345
2023-04-01T02:41:11.342Z,75.5882
2023-04-01T02:42:12.434Z,75.5977
2023-04-01T02:43:13.555Z,75.2626
2023-04-01T02:44:14.584Z,75.8629
2023-04-01T02:45:15.706Z,76.3328
2023-04-01T02:46:16.762Z,76.5286
2023-04-01T02:47:17.835Z,76.7161
2023-04-01T02:48:18.908Z,77.0220
2023-04-01T02:49:20.058Z,77.7971
2023-04-01T02:50:21.141Z,78.8107
2023-04-01T02:51:22.236Z,78.5511
2023-04-01T02:52:23.445Z,79.0120
2023-04-01T02:53:24.554Z,79.3779
2023-04-01T02:54:25.670Z,78.6876
2023-04-01T02:55:26.763Z,78.2666
2023-04-01T02:56:27.994Z,77.1766
2023-04-01T02:57:29.170Z,77.1160
2023-04-01T02:58:30.355Z,77.6717
2023-04-01T02:59:31.454Z,78.1226
2023-04-01T03:00:32.520Z,77.9160
2023-04-01T03:01:33.760Z,78.3754
2023-04-01T03:02:35.015Z,77.9058
2023-04-01T03:03:36.177Z,77.6106
2023-04-01T03:04:37.267Z,77.4067
2023-04-01T03:05:38.338Z,77.0531
2023-04-01T03:06:39.420Z,77.0667
2023-04-01T03:07:40.496Z,77.2556
2023-04-01T03:08:41.976Z,76.4843
2023-04-01T03:09:43.085Z,76.1342
2023-04-01T03:10:44.186Z,75.7809
2023-04-01T03:11:45.254Z,75.6904
2023-04-01T03:12:46.308Z,75.5499
2023-04-01T03:13:47.623Z,75.7508
2023-04-01T03:14:48.738Z,75.9341
2023-04-01T03:15:49.837Z,76.3890
2023-04-01T03:16:51.007Z,76.0067
2023-04-01T03:17:52.203Z,76.1319
2023-04-01T03:18:53.361Z,76.6878
2023-04-01T03:19:54.631Z,76.7066
2023-04-01T03:20:55.697Z,76.8246
2023-04-01T03:21:56.810Z,76.3894
2023-04-01T03:22:57.900Z,75.9443
2023-04-01T03:23:59.012Z,76.4191
2023-04-01T03:25:00.093Z,76.5717
2023-04-01T03:26:01.220Z,76.6694
2023-04-01T03:27:02.380Z,76.8443
2023-04-01T03:28:03.416Z,75.9021
2023-04-01T03:29:04.557Z,75.7689
2023-04-01T03:30:05.775Z,76.1412
2023-04-01T03:31:07.024Z,76.2927
2023-04-01T03:32:08.074Z,76.5598
2023-04-01T03:33:09.191Z,76.0667
2023-04-01T03:34:10.372Z,76.2319
2023-04-01T03:35:11.436Z,76.4326
2023-04-01T03:36:12.678Z,76.5366
2023-04-01T03:37:13.749Z,76.8958
2023-04-01T03:38:14.806Z,77.2635
2023-04-01T03:39:15.851Z,76.7257
2023-04-01T03:40:16.927Z,76.7355
2023-04-01T03:41:18.074Z,76.8933
2023-04-01T03:42:19.283Z,77.1118
2023-04-01T03:43:20.475Z,77.1564
2023-04-01T03:44:21.566Z,77.2071
2023-04-01T03:45:22.645Z,76.7078
2023-04-01T03:46:23.854Z,76.5394
2023-04-01T03:47:25.033Z,76.6565
2023-04-01T03:48:26.047Z,76.2444
2023-04-01T03:49:27.166Z,75.8292
2023-04-01T03:50:29.548Z,75.8632
2023-04-01T03:51:29.659Z,76.1330
2023-04-01T03:52:30.759Z,75.8741
2023-04-01T03:53:31.854Z,75.8575
2023-04-01T03:54:32.943Z,75.7842
2023-04-01T03:55:34.278Z,74.5710
2023-04-01T03:56:35.762Z,74.9137
2023-04-01T03:57:36.916Z,75.1691
2023-04-01T03:58:37.982Z,75.4196
2023-04-01T03:59:39.087Z,75.1882
2023-04-01T04:00:40.125Z,75.2325
2023-04-01T04:01:41.221Z,74.7743
2023-04-01T04:02:42.372Z,74.8346
2023-04-01T04:03:43.713Z,75.0283
2023-04-01T04:04:44.869Z,75.6761
2023-04-01T04:05:46.471Z,75.9146
2023-04-01T04:06:47.525Z,76.5906
2023-04-01T04:07:48.586Z,76.8618
2023-04-01T04:08:49.702Z,76.5084
2023-04-01T04:09:50.832Z,75.9201
2023-04-01T04:10:51.993Z,75.5067
2023-04-01T04:11:53.134Z,75.6460
2023-04-01T04:12:54.232Z,75.4325
2023-04-01T04:13:57.219Z,75.8462
2023-04-01T04:14:56.655Z,75.7694
2023-04-01T04:15:57.867Z,75.3989
2023-04-01T04:16:59.034Z,75.0313
2023-04-01T04:18:00.246Z,75.5234
2023-04-01T04:19:01.472Z,75.0113
2023-04-01T04:20:02.639Z,74.3058
2023-04-01T04:21:03.767Z,74.3853
2023-04-01T04:22:04.938Z,74.5834
2023-04-01T04:23:06.046Z,74.8248
2023-04-01T04:24:07.129Z,75.0861
2023-04-01T04:25:08.199Z,74.2456
2023-04-01T04:26:09.269Z,74.2552
2023-04-01T04:27:10.278Z,74.6435
2023-04-01T04:28:11.351Z,74.5110
2023-04-01T04:29:12.473Z,73.9129
2023-04-01T04:30:13.602Z,73.9349
2023-04-01T04:31:14.717Z,73.7107
2023-04-01T04:32:15.867Z,73.9038
2023-04-01T04:33:16.930Z,74.4716
2023-04-01T04:34:18.000Z,74.4573
2023-04-01T04:35:19.039Z,75.9681
2023-04-01T04:36:20.223Z,77.6744
2023-04-01T04:37:21.340Z,79.0143
2023-04-01T04:38:22.486Z,79.7893
2023-04-01T04:39:23.599Z,79.5347
2023-04-01T04:40:24.746Z,79.5236
2023-04-01T04:41:25.827Z,80.4592
2023-04-01T04:42:26.928Z,79.6413
2023-04-01T04:43:28.095Z,79.9646
2023-04-01T04:44:29.165Z,79.1836
2023-04-01T04:45:30.269Z,78.9407
2023-04-01T04:46:31.420Z,78.6144
2023-04-01T04:47:32.520Z,78.7118
2023-04-01T04:48:33.622Z,78.9823
2023-04-01T04:49:34.695Z,79.2453
2023-04-01T04:50:35.788Z,79.5798
2023-04-01T04:51:37.215Z,79.7835
2023-04-01T04:52:38.355Z,79.6369
2023-04-01T04:53:39.482Z,79.3474
2023-04-01T04:54:40.735Z,79.4710
2023-04-01T04:55:41.888Z,80.0114
2023-04-01T04:56:43.037Z,79.8802
2023-04-01T04:57:44.208Z,79.4759
2023-04-01T04:58:45.415Z,80.0540
2023-04-01T04:59:46.575Z,80.6835
2023-04-01T05:00:47.684Z,80.6664
2023-04-01T05:01:48.949Z,81.1129
2023-04-01T05:02:50.248Z,81.3932
2023-04-01T05:03:51.359Z,81.4356
2023-04-01T05:04:52.516Z,81.9965
2023-04-01T05:05:53.616Z,81.4307
2023-04-01T05:06:54.798Z,81.4864
2023-04-01T05:07:55.959Z,81.0368
2023-04-01T05:08:57.232Z,81.3378
2023-04-01T05:09:58.424Z,80.6927
2023-04-01T05:10:59.576Z,80.2866
2023-04-01T05:12:00.669Z,80.5201
2023-04-01T05:13:01.855Z,81.0757
2023-04-01T05:14:03.025Z,80.8853
2023-04-01T05:15:04.187Z,80.8813
2023-04-01T05:16:05.368Z,80.8858
2023-04-01T05:17:06.578Z,81.5915
2023-04-01T05:18:07.838Z,81.9309
2023-04-01T05:19:09.006Z,82.0444
2023-04-01T05:20:10.153Z,82.5859
2023-04-01T05:21:11.337Z,81.8293
2023-04-01T05:22:12.494Z,82.4470
2023-04-01T05:23:13.573Z,82.0719
2023-04-01T05:24:14.708Z,81.9911
2023-04-01T05:25:15.967Z,82.1637
2023-04-01T05:26:17.091Z,82.1269
2023-04-01T05:27:18.318Z,82.1986
2023-04-01T05:28:19.523Z,82.5671
2023-04-01T05:29:20.671Z,82.2294
2023-04-01T05:30:21.845Z,82.0243
2023-04-01T05:31:23.039Z,81.8996
2023-04-01T05:32:24.217Z,82.2799
2023-04-01T05:33:25.369Z,82.4230
2023-04-01T05:34:26.493Z,82.3731
2023-04-01T05:35:27.706Z,82.2227
2023-04-01T05:36:28.828Z,83.0420
2023-04-01T05:37:29.987Z,84.4609
2023-04-01T05:38:31.108Z,84.6736
2023-04-01T05:39:32.417Z,84.5924
2023-04-01T05:40:33.545Z,84.3145
2023-04-01T05:41:34.727Z,84.1194
2023-04-01T05:42:37.625Z,83.8150
2023-04-01T05:43:37.164Z,84.1926
2023-04-01T05:44:38.345Z,84.3855
2023-04-01T05:45:39.510Z,84.5758
2023-04-01T05:46:40.852Z,84.5379
2023-04-01T05:47:42.032Z,84.2529
2023-04-01T05:48:43.381Z,83.7328
2023-04-01T05:49:44.576Z,84.2229
2023-04-01T05:50:45.769Z,84.2351
2023-04-01T05:51:46.904Z,83.7910
2023-04-01T05:52:48.048Z,83.3342
2023-04-01T05:53:49.231Z,83.4085
2023-04-01T05:54:50.448Z,83.4733
2023-04-01T05:55:51.632Z,83.4205
2023-04-01T05:56:52.920Z,83.3547
2023-04-01T05:57:54.117Z,83.4881
2023-04-01T05:58:55.310Z,83.7663
2023-04-01T05:59:56.507Z,83.7115
2023-04-01T06:01:09.386Z,84.1875
2023-04-01T06:02:00.036Z,83.8674
2023-04-01T06:03:01.525Z,83.8093
2023-04-01T06:04:03.091Z,83.7957
2023-04-01T06:05:04.756Z,83.7301
2023-04-01T06:06:05.868Z,83.5085
2023-04-01T06:07:07.019Z,83.3691
2023-04-01T06:08:08.212Z,84.1972
2023-04-01T06:09:09.381Z,84.1806
2023-04-01T06:10:10.583Z,84.0894
2023-04-01T06:11:11.739Z,83.8709
2023-04-01T06:12:12.904Z,83.5057
2023-04-01T06:13:14.139Z,83.4246
2023-04-01T06:14:15.263Z,83.1360
2023-04-01T06:15:16.436Z,82.8307
2023-04-01T06:16:17.874Z,82.5683
2023-04-01T06:17:18.953Z,82.6313
2023-04-01T06:18:20.109Z,81.9726
2023-04-01T06:19:21.257Z,81.5228
2023-04-01T06:20:22.481Z,81.7121
2023-04-01T06:21:23.668Z,81.6931
2023-04-01T06:22:24.801Z,81.5560
2023-04-01T06:23:25.979Z,81.8883
2023-04-01T06:24:27.076Z,81.7932
2023-04-01T06:25:28.258Z,82.3393
2023-04-01T06:26:29.441Z,82.0517
2023-04-01T06:27:30.553Z,82.0358
2023-04-01T06:28:31.678Z,82.2148
2023-04-01T06:29:32.882Z,82.2683
2023-04-01T06:30:34.033Z,81.8676
2023-04-01T06:31:35.211Z,82.6242
2023-04-01T06:32:36.382Z,82.0794
2023-04-01T06:33:37.470Z,82.2572
2023-04-01T06:34:38.680Z,82.1737
2023-04-01T06:35:39.875Z,81.8773
2023-04-01T06:36:41.129Z,81.0028
2023-04-01T06:37:42.409Z,81.1024
2023-04-01T06:38:43.571Z,80.4484
2023-04-01T06:39:44.620Z,79.9828
2023-04-01T06:40:45.770Z,79.5902
2023-04-01T06:41:46.962Z,79.5067
2023-04-01T06:42:48.117Z,79.3605
2023-04-01T06:43:49.398Z,79.5953
2023-04-01T06:44:50.519Z,79.5919
2023-04-01T06:45:51.706Z,79.6061
2023-04-01T06:46:52.811Z,79.0987
2023-04-01T06:47:54.041Z,78.8713
2023-04-01T06:48:55.171Z,79.0884
2023-04-01T06:49:56.334Z,78.9864
2023-04-01T06:50:57.427Z,78.8837
2023-04-01T06:51:58.560Z,78.9532
2023-04-01T06:52:59.690Z,78.1780
2023-04-01T06:54:00.799Z,77.0940
2023-04-01T06:55:01.953Z,77.2187
2023-04-01T06:56:03.070Z,77.2639
2023-04-01T06:57:04.253Z,76.9544
2023-04-01T06:58:05.406Z,77.1065
2023-04-01T06:59:06.562Z,76.6185
2023-04-01T07:00:07.786Z,76.6872
2023-04-01T07:01:08.934Z,76.6644
2023-04-01T07:02:10.102Z,75.9714
2023-04-01T07:03:11.285Z,76.4481
2023-04-01T07:04:12.452Z,76.5731
2023-04-01T07:05:13.714Z,76.3685
2023-04-01T07:06:14.910Z,76.9915
2023-04-01T07:07:16.060Z,77.4280
2023-04-01T07:08:17.274Z,76.9152
2023-04-01T07:09:18.378Z,76.8963
2023-04-01T07:10:19.588Z,77.3054
2023-04-01T07:11:20.794Z,77.2973
2023-04-01T07:12:22.025Z,77.4409
2023-04-01T07:13:23.324Z,76.9647
2023-04-01T07:14:24.421Z,76.3600
2023-04-01T07:15:25.649Z,76.6625
2023-04-01T07:16:26.814Z,77.2366
2023-04-01T07:17:28.021Z,77.2680
2023-04-01T07:18:29.115Z,77.4975
2023-04-01T07:19:30.249Z,78.2993
2023-04-01T07:20:31.430Z,78.9183
2023-04-01T07:21:33.694Z,78.8617
2023-04-01T07:22:34.908Z,79.1493
2023-04-01T07:23:36.074Z,80.1726
2023-04-01T07:24:37.224Z,80.0327
2023-04-01T07:25:38.396Z,81.5479
2023-04-01T07:26:39.566Z,82.1643
2023-04-01T07:27:40.716Z,82.0779
2023-04-01T07:28:42.918Z,82.8948
2023-04-01T07:29:44.121Z,83.1279
2023-04-01T07:30:45.433Z,84.3849
2023-04-01T07:31:46.586Z,84.4918
2023-04-01T07:32:47.813Z,85.1041
2023-04-01T07:33:48.923Z,83.7493
2023-04-01T07:34:50.080Z,83.5937
2023-04-01T07:35:51.254Z,83.3545
2023-04-01T07:36:52.436Z,84.1849
2023-04-01T07:37:53.589Z,84.2059
2023-04-01T07:38:54.709Z,83.5368
2023-04-01T07:39:55.952Z,84.3529
2023-04-01T07:40:57.101Z,84.2424
2023-04-01T07:41:58.232Z,84.6217
2023-04-01T07:42:59.349Z,84.9442
2023-04-01T07:44:00.527Z,84.3290
2023-04-01T07:45:01.686Z,83.8769
2023-04-01T07:46:02.889Z,85.1325
2023-04-01T07:47:04.070Z,85.7730
2023-04-01T07:48:05.193Z,85.2895
2023-04-01T07:49:06.292Z,85.6972
2023-04-01T07:50:07.611Z,86.1006
2023-04-01T07:51:08.779Z,85.7755
2023-04-01T07:52:09.988Z,85.3545
2023-04-01T07:53:11.134Z,85.8918
2023-04-01T07:54:12.282Z,86.8036
2023-04-01T07:55:13.452Z,86.5710
2023-04-01T07:56:14.613Z,85.1619
2023-04-01T07:57:15.846Z,85.8373
2023-04-01T07:58:16.933Z,85.6087
2023-04-01T07:59:18.081Z,86.2542
2023-04-01T08:00:19.265Z,85.6226
2023-04-01T08:01:20.393Z,85.8794
2023-04-01T08:02:21.614Z,86.1092
2023-04-01T08:03:22.840Z,86.2176
2023-04-01T08:04:24.038Z,86.5890
2023-04-01T08:05:25.272Z,86.1646
2023-04-01T08:06:26.520Z,86.3188
2023-04-01T08:07:27.726Z,87.1377
2023-04-01T08:08:28.838Z,87.2078
2023-04-01T08:09:30.008Z,87.9252
2023-04-01T08:10:31.185Z,88.0761
2023-04-01T08:11:32.359Z,88.0009
2023-04-01T08:12:33.518Z,87.0925
2023-04-01T08:13:34.634Z,87.3757
2023-04-01T08:14:35.755Z,88.3843
2023-04-01T08:15:36.908Z,88.1778
2023-04-01T08:16:38.150Z,87.7280
2023-04-01T08:17:39.338Z,87.6155
2023-04-01T08:18:40.436Z,86.7701
2023-04-01T08:19:41.585Z,87.0987
2023-04-01T08:20:42.706Z,87.0962
2023-04-01T08:21:43.885Z,87.8641
2023-04-01T08:22:45.081Z,88.3763
2023-04-01T08:23:46.229Z,87.8006
2023-04-01T08:24:48.286Z,87.0322
2023-04-01T08:25:49.852Z,87.3500
2023-04-01T08:26:51.080Z,87.3831
2023-04-01T08:27:52.331Z,87.5884
2023-04-01T08:28:53.476Z,87.4809
2023-04-01T08:29:54.642Z,87.5088
2023-04-01T08:30:55.842Z,87.4516
2023-04-01T08:31:57.042Z,87.8093
2023-04-01T08:32:58.232Z,85.7421
2023-04-01T08:33:59.420Z,85.5221
2023-04-01T08:35:00.573Z,86.0179
2023-04-01T08:36:01.842Z,86.8352
2023-04-01T08:37:03.024Z,87.3263
2023-04-01T08:38:04.198Z,88.1894
2023-04-01T08:39:05.302Z,87.4365
2023-04-01T08:40:06.410Z,88.3128
2023-04-01T08:41:07.547Z,88.3441
2023-04-01T08:42:08.659Z,88.3263
2023-04-01T08:43:09.821Z,88.9248
2023-04-01T08:44:10.979Z,88.4440
2023-04-01T08:45:14.240Z,87.8498
2023-04-01T08:46:13.642Z,88.2981
2023-04-01T08:47:14.831Z,88.4764
2023-04-01T08:48:16.008Z,88.4497
2023-04-01T08:49:17.272Z,88.4398
2023-04-01T08:50:18.543Z,87.9314
2023-04-01T08:51:19.731Z,87.4783
2023-04-01T08:52:21.070Z,87.3649
2023-04-01T08:53:22.242Z,86.7937
2023-04-01T08:54:23.469Z,86.5339
2023-04-01T08:55:24.599Z,87.2560
2023-04-01T08:56:25.764Z,87.5107
2023-04-01T08:57:27.095Z,87.2209
2023-04-01T08:58:28.321Z,87.5063
2023-04-01T08:59:29.427Z,87.9197
2023-04-01T09:00:30.631Z,87.9391
2023-04-01T09:01:31.794Z,88.0438
2023-04-01T09:02:33.100Z,88.4912
2023-04-01T09:03:34.557Z,88.1681
2023-04-01T09:04:35.888Z,87.5748
2023-04-01T09:05:37.170Z,87.7028
2023-04-01T09:06:38.354Z,87.5266
2023-04-01T09:07:39.497Z,87.4603
2023-04-01T09:08:40.702Z,87.6138
2023-04-01T09:09:42.296Z,87.7008
2023-04-01T09:10:43.435Z,88.2086
2023-04-01T09:11:44.754Z,88.4640
2023-04-01T09:12:45.903Z,88.7976
2023-04-01T09:13:47.210Z,88.8828
2023-04-01T09:14:48.383Z,88.7017
2023-04-01T09:15:49.575Z,89.1234
2023-04-01T09:16:50.764Z,88.2448
2023-04-01T09:17:51.972Z,86.8619
2023-04-01T09:18:53.195Z,86.3118
2023-04-01T09:19:54.350Z,87.4993
2023-04-01T09:20:55.649Z,87.8282
2023-04-01T09:21:57.706Z,87.0591
2023-04-01T09:22:58.915Z,86.8758
2023-04-01T09:24:00.135Z,86.9502
2023-04-01T09:25:01.332Z,87.1872
2023-04-01T09:26:02.606Z,87.0478
2023-04-01T09:27:03.777Z,87.1908
2023-04-01T09:28:04.981Z,86.7798
2023-04-01T09:29:06.311Z,86.7216
2023-04-01T09:30:07.476Z,87.3495
2023-04-01T09:31:08.723Z,86.7782
2023-04-01T09:32:09.917Z,87.3317
2023-04-01T09:33:11.126Z,88.2452
2023-04-01T09:34:12.315Z,87.4970
2023-04-01T09:35:13.488Z,88.1877
2023-04-01T09:36:14.834Z,88.2699
2023-04-01T09:37:16.024Z,88.7142
2023-04-01T09:38:17.167Z,88.4124
2023-04-01T09:39:18.411Z,88.0693
2023-04-01T09:40:19.737Z,86.7994
2023-04-01T09:41:21.030Z,86.6620
2023-04-01T09:42:22.273Z,87.3285
2023-04-01T09:43:23.410Z,86.6726
2023-04-01T09:44:24.599Z,86.0539
2023-04-01T09:45:25.793Z,86.2168
2023-04-01T09:46:27.015Z,87.1290
2023-04-01T09:47:28.454Z,86.2833
2023-04-01T09:48:29.661Z,85.5264
2023-04-01T09:49:30.882Z,86.1764
2023-04-01T09:50:32.049Z,85.0090
2023-04-01T09:51:33.245Z,84.4500
2023-04-01T09:52:34.453Z,84.0255
2023-04-01T09:53:35.655Z,83.4263
2023-04-01T09:54:36.857Z,83.0551
2023-04-01T09:55:38.059Z,83.1910
2023-04-01T09:56:39.220Z,83.8300
2023-04-01T09:57:40.429Z,83.6504
2023-04-01T09:58:44.004Z,84.1359
2023-04-01T09:59:43.336Z,83.1868
2023-04-01T10:00:44.567Z,82.9518
2023-04-01T10:01:45.851Z,82.5812
2023-04-01T10:02:47.030Z,82.6441
2023-04-01T10:03:48.253Z,81.8981
2023-04-01T10:04:49.516Z,81.9725
2023-04-01T10:05:50.824Z,80.0200
2023-04-01T10:06:52.457Z,80.3811
2023-04-01T10:07:53.666Z,80.3544
2023-04-01T10:08:54.884Z,81.6308
2023-04-01T10:09:56.100Z,81.1853
2023-04-01T10:10:57.310Z,80.9224
2023-04-01T10:11:58.648Z,81.5978
2023-04-01T10:12:59.860Z,80.7636
2023-04-01T10:14:01.171Z,80.8372
2023-04-01T10:15:02.360Z,81.7858
2023-04-01T10:16:03.583Z,81.4013
2023-04-01T10:17:04.801Z,81.5892
2023-04-01T10:18:06.164Z,81.7464
2023-04-01T10:19:07.468Z,82.3599
2023-04-01T10:20:08.793Z,82.3848
2023-04-01T10:21:09.964Z,82.9673
2023-04-01T10:22:11.199Z,82.9778
2023-04-01T10:23:12.748Z,81.7004
2023-04-01T10:24:13.958Z,82.3490
2023-04-01T10:25:15.196Z,82.4290
2023-04-01T10:26:16.416Z,82.1189
2023-04-01T10:27:17.655Z,82.7838
2023-04-01T10:28:18.866Z,81.7559
2023-04-01T10:29:20.116Z,80.0002
2023-04-01T10:30:21.245Z,79.9921
2023-04-01T10:31:22.490Z,80.9379
2023-04-01T10:32:23.694Z,81.7653
2023-04-01T10:33:24.846Z,81.7119
2023-04-01T10:34:26.075Z,81.3011
2023-04-01T10:35:27.282Z,79.6177
2023-04-01T10:36:28.546Z,80.2029
2023-04-01T10:37:29.748Z,80.4229
2023-04-01T10:38:30.938Z,80.7420
2023-04-01T10:39:32.194Z,81.4109
2023-04-01T10:40:33.455Z,81.0299
2023-04-01T10:41:34.670Z,80.7796
2023-04-01T10:42:35.914Z,81.3549
2023-04-01T10:43:37.059Z,80.7995
2023-04-01T10:44:38.341Z,81.0681
2023-04-01T10:45:39.571Z,81.1546
2023-04-01T10:46:40.848Z,81.0247
2023-04-01T10:47:42.081Z,81.1551
2023-04-01T10:48:43.307Z,81.0343
2023-04-01T10:49:44.593Z,81.4118
2023-04-01T10:50:45.880Z,81.3516
2023-04-01T10:51:47.105Z,80.1526
2023-04-01T10:52:48.296Z,80.8457
2023-04-01T10:53:49.501Z,80.8580
2023-04-01T10:54:50.683Z,80.2653
2023-04-01T10:55:51.901Z,80.4543
2023-04-01T10:56:53.117Z,79.4368
2023-04-01T10:57:54.419Z,79.8730
2023-04-01T10:58:55.571Z,80.5778
2023-04-01T10:59:56.850Z,80.4774
2023-04-01T11:00:58.087Z,80.0059
2023-04-01T11:02:10.184Z,80.2118
2023-04-01T11:03:01.756Z,79.9295
2023-04-01T11:04:03.147Z,79.8829
2023-04-01T11:05:04.385Z,80.0713
2023-04-01T11:06:05.593Z,79.9506
2023-04-01T11:07:06.836Z,79.8779
2023-04-01T11:08:08.060Z,79.7665
2023-04-01T11:09:09.242Z,79.3112
2023-04-01T11:10:10.465Z,79.1149
2023-04-01T11:11:11.644Z,78.8008
2023-04-01T11:12:12.800Z,78.5937
2023-04-01T11:13:14.044Z,79.0907
2023-04-01T11:14:15.254Z,78.9623
2023-04-01T11:15:16.415Z,78.3657
2023-04-01T11:16:18.512Z,77.8762
2023-04-01T11:17:18.025Z,78.0475
2023-04-01T11:18:19.210Z,78.2450
2023-04-01T11:19:20.386Z,77.8101
2023-04-01T11:20:21.529Z,77.8250
2023-04-01T11:21:23.862Z,77.5208
2023-04-01T11:22:23.619Z,77.6457
2023-04-01T11:23:24.800Z,77.9018
2023-04-01T11:24:25.985Z,77.7636
2023-04-01T11:25:27.169Z,78.2572
2023-04-01T11:26:28.361Z,78.7986
2023-04-01T11:27:29.615Z,78.7369
2023-04-01T11:28:31.566Z,79.0439
2023-04-01T11:29:32.750Z,79.1535
2023-04-01T11:30:33.979Z,80.1833
2023-04-01T11:31:35.245Z,80.3132
2023-04-01T11:32:36.563Z,80.6613
2023-04-01T11:33:37.767Z,81.2008
2023-04-01T11:34:38.921Z,82.2187
2023-04-01T11:35:40.137Z,82.6895
2023-04-01T11:36:41.377Z,81.2012
2023-04-01T11:37:42.525Z,81.1355
2023-04-01T11:38:43.697Z,81.4082
2023-04-01T11:39:45.011Z,80.9950
2023-04-01T11:40:46.202Z,80.2611
2023-04-01T11:41:47.409Z,80.4271
2023-04-01T11:42:48.718Z,80.5445
2023-04-01T11:43:49.933Z,81.1954
2023-04-01T11:44:51.084Z,81.0036
2023-04-01T11:45:52.314Z,80.6039
2023-04-01T11:46:53.467Z,80.6837
2023-04-01T11:47:54.914Z,80.7269
2023-04-01T11:48:56.342Z,81.1149
2023-04-01T11:49:57.532Z,80.7684
2023-04-01T11:50:58.667Z,80.4197
2023-04-01T11:51:59.905Z,80.7790
2023-04-01T11:53:01.168Z,79.6157
2023-04-01T11:54:02.353Z,80.3591
2023-04-01T11:55:03.723Z,80.1000
2023-04-01T11:56:04.944Z,79.6127
2023-04-01T11:57:06.182Z,80.3185
2023-04-01T11:58:07.330Z,79.7003
2023-04-01T11:59:08.528Z,78.9603
2023-04-01T12:00:09.712Z,78.2297
2023-04-01T12:01:10.888Z,78.4142
2023-04-01T12:02:12.199Z,77.4263
2023-04-01T12:03:13.499Z,76.9465
2023-04-01T12:04:14.793Z,77.3694
2023-04-01T12:05:16.035Z,77.3211
2023-04-01T12:06:17.233Z,77.1569
2023-04-01T12:07:18.496Z,76.1942
2023-04-01T12:08:19.782Z,76.3223
2023-04-01T12:09:21.098Z,76.8488
2023-04-01T12:10:22.278Z,76.6592
2023-04-01T12:11:23.454Z,76.3304
2023-04-01T12:12:24.656Z,75.2626
2023-04-01T12:13:26.121Z,74.7327
2023-04-01T12:14:27.377Z,74.8657
2023-04-01T12:15:28.525Z,74.7637
2023-04-01T12:16:29.716Z,74.9429
2023-04-01T12:17:30.917Z,74.4988
2023-04-01T12:18:32.104Z,74.2822
2023-04-01T12:19:33.285Z,74.1660